createdAt,value
2023-08-07T00:00:34.011Z,13.52
2023-08-07T00:03:36.872Z,15.38
2023-08-07T00:06:39.150Z,11.82
2023-08-07T00:09:41.496Z,9.98
2023-08-07T00:12:44.226Z,16.25
2023-08-07T00:15:48.987Z,12.68
2023-08-07T00:18:53.685Z,14.15
2023-08-07T00:21:56.084Z,12.95
2023-08-07T00:24:58.497Z,11.98
2023-08-07T00:28:00.754Z,14.02
2023-08-07T00:31:04.362Z,15.82
2023-08-07T00:34:06.732Z,13.05
2023-08-07T00:37:08.953Z,16.98
2023-08-07T00:40:12.247Z,9.45
2023-08-07T00:43:14.495Z,16.65
2023-08-07T00:46:18.905Z,15.55
2023-08-07T00:49:21.483Z,11.95
2023-08-07T00:52:23.765Z,13.68
2023-08-07T00:55:26.073Z,12.18
2023-08-07T00:58:28.317Z,18.10
2023-08-07T01:01:31.944Z,10.00
2023-08-07T01:04:34.213Z,8.63
2023-08-07T01:07:36.427Z,19.10
2023-08-07T01:11:00.009Z,14.77
2023-08-07T01:14:08.474Z,15.27
2023-08-07T01:17:16.089Z,20.40
2023-08-07T01:20:18.745Z,11.32
2023-08-07T01:23:22.414Z,19.10
2023-08-07T01:26:24.740Z,12.00
2023-08-07T01:29:33.151Z,17.73
2023-08-07T01:32:43.099Z,14.88
2023-08-07T01:35:47.648Z,14.27
2023-08-07T01:38:51.738Z,16.80
2023-08-07T01:41:54.301Z,8.98
2023-08-07T01:44:56.561Z,10.88
2023-08-07T01:48:00.348Z,15.65
2023-08-07T01:51:02.834Z,13.40
2023-08-07T01:54:07.015Z,11.98
2023-08-07T01:57:09.342Z,12.88
2023-08-07T02:00:12.329Z,13.35
2023-08-07T02:03:20.588Z,16.58
2023-08-07T02:06:24.876Z,21.67
2023-08-07T02:09:29.394Z,15.20
2023-08-07T02:12:33.229Z,12.80
2023-08-07T02:15:36.157Z,21.98
2023-08-07T02:18:38.399Z,11.95
2023-08-07T02:21:40.784Z,10.93
2023-08-07T02:24:44.434Z,14.02
2023-08-07T02:27:46.749Z,16.90
2023-08-07T02:30:52.039Z,18.88
2023-08-07T02:33:55.345Z,11.38
2023-08-07T02:36:57.783Z,9.25
2023-08-07T02:40:01.445Z,15.63
2023-08-07T02:43:03.691Z,8.93
2023-08-07T02:46:06.041Z,16.13
2023-08-07T02:49:08.732Z,12.88
2023-08-07T02:52:10.958Z,15.18
2023-08-07T02:55:14.802Z,12.70
2023-08-07T02:58:17.098Z,11.13
2023-08-07T03:01:20.617Z,10.88
2023-08-07T03:04:22.946Z,12.85
2023-08-07T03:07:25.394Z,12.13
2023-08-07T03:10:28.998Z,9.52
2023-08-07T03:13:31.308Z,10.60
2023-08-07T03:16:33.578Z,14.77
2023-08-07T03:19:36.280Z,13.27
2023-08-07T03:22:38.573Z,13.40
2023-08-07T03:25:42.319Z,11.35
2023-08-07T03:28:47.316Z,11.48
2023-08-07T03:31:49.831Z,7.90
2023-08-07T03:34:53.295Z,9.70
2023-08-07T03:37:56.266Z,20.05
2023-08-07T03:40:59.933Z,12.30
2023-08-07T03:44:02.379Z,12.15
2023-08-07T03:47:05.273Z,16.42
2023-08-07T03:50:08.755Z,14.85
2023-08-07T03:53:11.026Z,14.85
2023-08-07T03:56:19.824Z,12.43
2023-08-07T03:59:22.117Z,15.43
2023-08-07T04:02:24.562Z,14.98
2023-08-07T04:05:26.987Z,10.23
2023-08-07T04:08:29.320Z,11.80
2023-08-07T04:11:34.693Z,9.52
2023-08-07T04:14:36.951Z,10.35
2023-08-07T04:17:39.266Z,9.18
2023-08-07T04:20:41.558Z,8.85
2023-08-07T04:23:43.824Z,11.73
2023-08-07T04:26:47.678Z,12.20
2023-08-07T04:29:49.946Z,9.82
2023-08-07T04:32:52.258Z,12.18
2023-08-07T04:35:54.540Z,11.10
2023-08-07T04:38:57.013Z,11.73
2023-08-07T04:42:00.901Z,16.88
2023-08-07T04:45:03.377Z,11.05
2023-08-07T04:48:05.743Z,8.20
2023-08-07T04:51:08.020Z,11.90
2023-08-07T04:54:10.366Z,8.80
2023-08-07T04:57:13.905Z,14.40
2023-08-07T05:00:16.762Z,10.38
2023-08-07T05:03:19.723Z,10.80
2023-08-07T05:06:22.116Z,13.93
2023-08-07T05:09:24.430Z,12.88
2023-08-07T05:12:28.021Z,11.02
2023-08-07T05:15:31.806Z,12.32
2023-08-07T05:18:34.097Z,12.30
2023-08-07T05:21:36.466Z,15.85
2023-08-07T05:24:41.643Z,10.50
2023-08-07T05:27:45.970Z,12.60
2023-08-07T05:30:48.194Z,12.13
2023-08-07T05:33:50.403Z,15.88
2023-08-07T05:36:52.658Z,12.32
2023-08-07T05:39:54.937Z,10.23
2023-08-07T05:42:58.492Z,10.15
2023-08-07T05:46:00.853Z,14.57
2023-08-07T05:49:03.928Z,11.57
2023-08-07T05:52:07.320Z,17.23
2023-08-07T05:55:09.884Z,8.98
2023-08-07T05:58:13.433Z,13.93
2023-08-07T06:01:18.257Z,16.27
2023-08-07T06:04:22.757Z,10.77
2023-08-07T06:07:25.067Z,13.25
2023-08-07T06:10:27.680Z,13.65
2023-08-07T06:13:36.405Z,10.02
2023-08-07T06:16:39.076Z,9.30
2023-08-07T06:19:41.400Z,9.93
2023-08-07T06:22:45.725Z,9.35
2023-08-07T06:25:47.975Z,11.50
2023-08-07T06:28:52.124Z,11.02
2023-08-07T06:31:54.592Z,11.23
2023-08-07T06:34:56.847Z,8.13
2023-08-07T06:37:59.167Z,8.30
2023-08-07T06:41:01.634Z,12.68
2023-08-07T06:44:06.354Z,8.20
2023-08-07T06:47:10.955Z,16.10
2023-08-07T06:50:14.586Z,12.90
2023-08-07T06:53:17.072Z,10.82
2023-08-07T06:56:19.790Z,15.32
2023-08-07T06:59:24.798Z,12.23
2023-08-07T07:02:27.151Z,12.43
2023-08-07T07:05:31.218Z,13.07
2023-08-07T07:08:33.591Z,10.90
2023-08-07T07:11:35.945Z,8.23
2023-08-07T07:14:39.622Z,7.45
2023-08-07T07:17:43.856Z,11.45
2023-08-07T07:20:46.190Z,8.10
2023-08-07T07:23:48.456Z,8.18
2023-08-07T07:26:51.183Z,10.57
2023-08-07T07:29:54.879Z,10.63
2023-08-07T07:32:57.197Z,11.27
2023-08-07T07:35:59.709Z,13.00
2023-08-07T07:39:02.789Z,9.32
2023-08-07T07:42:07.979Z,11.60
2023-08-07T07:45:12.756Z,11.05
2023-08-07T07:48:17.642Z,9.77
2023-08-07T07:51:20.047Z,9.10
2023-08-07T07:54:22.762Z,14.32
2023-08-07T07:57:25.661Z,16.38
2023-08-07T08:00:29.612Z,15.55
2023-08-07T08:03:31.863Z,13.15
2023-08-07T08:06:34.135Z,10.35
2023-08-07T08:09:36.386Z,9.93
2023-08-07T08:12:38.668Z,15.30
2023-08-07T08:15:42.355Z,9.50
2023-08-07T08:18:44.707Z,10.43
2023-08-07T08:21:46.986Z,14.38
2023-08-07T08:24:49.255Z,11.70
2023-08-07T08:27:52.252Z,8.32
2023-08-07T08:30:55.913Z,8.43
2023-08-07T08:33:58.746Z,16.98
2023-08-07T08:37:01.193Z,9.88
2023-08-07T08:40:04.057Z,10.30
2023-08-07T08:43:06.788Z,12.35
2023-08-07T08:46:12.865Z,10.93
2023-08-07T08:49:17.186Z,18.42
2023-08-07T08:52:19.604Z,17.00
2023-08-07T08:55:22.473Z,10.98
2023-08-07T08:58:25.012Z,13.07
2023-08-07T09:01:28.912Z,11.55
2023-08-07T09:04:31.301Z,16.17
2023-08-07T09:07:33.964Z,7.40
2023-08-07T09:10:36.921Z,6.97
2023-08-07T09:13:39.576Z,15.80
2023-08-07T09:16:43.577Z,7.88
2023-08-07T09:19:46.825Z,8.20
2023-08-07T09:22:49.127Z,13.30
2023-08-07T09:26:00.217Z,9.60
2023-08-07T09:29:03.709Z,24.95
2023-08-07T09:32:09.658Z,9.00
2023-08-07T09:35:11.888Z,12.88
2023-08-07T09:38:14.278Z,9.15
2023-08-07T09:41:18.573Z,6.70
2023-08-07T09:44:22.704Z,12.10
2023-08-07T09:47:27.402Z,10.13
2023-08-07T09:50:30.599Z,13.93
2023-08-07T09:53:32.947Z,6.07
2023-08-07T09:56:36.106Z,12.73
2023-08-07T09:59:38.471Z,11.35
2023-08-07T10:02:43.357Z,16.85
2023-08-07T10:05:45.806Z,8.07
2023-08-07T10:08:48.699Z,8.02
2023-08-07T10:11:51.503Z,14.13
2023-08-07T10:14:54.532Z,10.95
2023-08-07T10:18:01.315Z,10.93
2023-08-07T10:21:07.206Z,17.65
2023-08-07T10:24:10.773Z,7.78
2023-08-07T10:27:13.908Z,13.20
2023-08-07T10:30:17.038Z,13.85
2023-08-07T10:33:23.760Z,9.30
2023-08-07T10:36:33.905Z,7.80
2023-08-07T10:39:36.169Z,7.90
2023-08-07T10:42:52.785Z,7.05
2023-08-07T10:45:55.159Z,9.63
2023-08-07T10:49:00.899Z,7.65
2023-08-07T10:52:06.314Z,15.00
2023-08-07T10:55:14.442Z,3.53
2023-08-07T10:58:24.975Z,12.32
2023-08-07T11:01:41.123Z,6.67
2023-08-07T11:04:45.515Z,10.00
2023-08-07T11:07:48.190Z,5.70
2023-08-07T11:10:51.974Z,9.32
2023-08-07T11:13:54.512Z,7.85
2023-08-07T11:16:57.112Z,7.80
2023-08-07T11:20:00.884Z,11.88
2023-08-07T11:23:03.146Z,7.65
2023-08-07T11:26:05.508Z,6.88
2023-08-07T11:29:08.238Z,7.05
2023-08-07T11:32:11.818Z,6.25
2023-08-07T11:35:15.618Z,15.32
2023-08-07T11:38:31.650Z,4.65
2023-08-07T11:41:34.205Z,4.82
2023-08-07T11:44:36.635Z,7.60
2023-08-07T11:47:40.062Z,7.03
2023-08-07T11:50:43.730Z,8.98
2023-08-07T11:53:46.982Z,9.48
2023-08-07T11:56:49.250Z,6.97
2023-08-07T11:59:51.811Z,5.15
2023-08-07T12:02:54.141Z,4.82
2023-08-07T12:05:59.187Z,6.82
2023-08-07T12:09:01.483Z,9.48
2023-08-07T12:12:04.872Z,10.82
2023-08-07T12:15:09.627Z,5.72
2023-08-07T12:18:14.147Z,6.45
2023-08-07T12:21:24.064Z,13.35
2023-08-07T12:24:26.506Z,6.15
2023-08-07T12:27:28.906Z,4.00
2023-08-07T12:30:34.357Z,4.95
2023-08-07T12:33:36.925Z,7.88
2023-08-07T12:36:41.559Z,5.00
2023-08-07T12:42:49.888Z,6.57
2023-08-07T12:45:54.163Z,5.53
2023-08-07T12:48:56.809Z,4.00
2023-08-07T12:52:02.882Z,5.78
2023-08-07T12:55:08.714Z,6.13
2023-08-07T12:58:10.916Z,7.07
2023-08-07T13:01:13.670Z,7.95
2023-08-07T13:04:17.374Z,6.72
2023-08-07T13:07:21.065Z,11.38
2023-08-07T13:10:24.108Z,9.40
2023-08-07T13:13:26.350Z,5.43
2023-08-07T13:16:28.623Z,7.40
2023-08-07T13:19:33.425Z,6.75
2023-08-07T13:22:38.847Z,8.68
2023-08-07T13:25:44.279Z,18.60
2023-08-07T13:28:46.708Z,5.75
2023-08-07T13:31:49.425Z,11.32
2023-08-07T13:34:51.747Z,5.13
2023-08-07T13:37:59.177Z,6.43
2023-08-07T13:41:01.481Z,8.30
2023-08-07T13:44:03.896Z,7.25
2023-08-07T13:47:07.702Z,10.95
2023-08-07T13:50:13.770Z,9.00
2023-08-07T13:53:17.661Z,9.50
2023-08-07T13:56:20.266Z,9.35
2023-08-07T13:59:22.524Z,6.85
2023-08-07T14:02:24.959Z,12.90
2023-08-07T14:05:27.289Z,5.68
2023-08-07T14:08:30.909Z,9.43
2023-08-07T14:11:34.397Z,5.72
2023-08-07T14:14:36.739Z,5.88
2023-08-07T14:17:38.971Z,7.70
2023-08-07T14:20:52.177Z,7.00
2023-08-07T14:24:06.053Z,7.75
2023-08-07T14:27:08.539Z,6.78
2023-08-07T14:30:14.646Z,5.90
2023-08-07T14:33:18.085Z,4.63
2023-08-07T14:36:20.953Z,12.82
2023-08-07T14:39:24.803Z,3.30
2023-08-07T14:42:27.396Z,3.05
2023-08-07T14:45:30.160Z,9.45
2023-08-07T14:48:32.446Z,5.45
2023-08-07T14:51:34.716Z,5.97
2023-08-07T14:54:38.326Z,5.00
2023-08-07T14:57:41.960Z,4.65
2023-08-07T15:00:44.273Z,8.88
2023-08-07T15:03:46.980Z,4.55
2023-08-07T15:06:51.355Z,6.50
2023-08-07T15:09:55.243Z,3.95
2023-08-07T15:12:57.501Z,6.78
2023-08-07T15:16:01.786Z,9.75
2023-08-07T15:19:04.499Z,5.90
2023-08-07T15:22:09.590Z,6.82
2023-08-07T15:25:13.219Z,6.15
2023-08-07T15:28:15.566Z,8.23
2023-08-07T15:31:17.887Z,10.32
2023-08-07T15:34:20.294Z,12.40
2023-08-07T15:37:22.672Z,7.20
2023-08-07T15:40:26.460Z,10.55
2023-08-07T15:43:29.584Z,11.00
2023-08-07T15:46:31.950Z,7.50
2023-08-07T15:49:34.367Z,8.38
2023-08-07T15:52:36.761Z,9.23
2023-08-07T15:55:40.587Z,6.65
2023-08-07T15:58:42.845Z,6.22
2023-08-07T16:01:45.178Z,3.67
2023-08-07T16:04:50.410Z,7.78
2023-08-07T16:07:53.309Z,5.63
2023-08-07T16:10:56.981Z,6.53
2023-08-07T16:13:59.220Z,5.80
2023-08-07T16:17:04.113Z,4.53
2023-08-07T16:20:07.190Z,7.10
2023-08-07T16:23:09.574Z,9.25
2023-08-07T16:26:13.228Z,6.80
2023-08-07T16:29:18.897Z,6.75
2023-08-07T16:32:21.810Z,6.20
2023-08-07T16:35:24.239Z,4.72
2023-08-07T16:38:26.520Z,4.07
2023-08-07T16:41:30.057Z,4.97
2023-08-07T16:44:35.177Z,4.70
2023-08-07T16:47:37.769Z,4.57
2023-08-07T16:50:41.782Z,2.30
2023-08-07T16:53:49.880Z,4.15
2023-08-07T16:56:54.685Z,5.13
2023-08-07T16:59:57.164Z,2.70
2023-08-07T17:02:59.497Z,4.85
2023-08-07T17:06:05.304Z,2.80
2023-08-07T17:09:07.853Z,1.50
2023-08-07T17:12:12.877Z,3.10
2023-08-07T17:15:15.179Z,4.47
2023-08-07T17:18:17.521Z,7.85
2023-08-07T17:21:21.398Z,3.65
2023-08-07T17:24:23.711Z,4.25
2023-08-07T17:27:27.414Z,2.08
2023-08-07T17:30:30.534Z,4.20
2023-08-07T17:33:34.545Z,2.75
2023-08-07T17:36:38.697Z,1.55
2023-08-07T17:39:40.963Z,1.55
2023-08-07T17:42:44.581Z,1.20
2023-08-07T17:45:50.117Z,1.67
2023-08-07T17:48:55.167Z,2.70
2023-08-07T17:51:58.200Z,1.55
2023-08-07T17:55:01.973Z,5.28
2023-08-07T17:58:06.806Z,2.25
2023-08-07T18:01:09.097Z,3.72
2023-08-07T18:04:11.368Z,3.10
2023-08-07T18:07:15.762Z,1.45
2023-08-07T18:10:19.362Z,1.30
2023-08-07T18:13:24.383Z,1.60
2023-08-07T18:16:27.162Z,1.27
2023-08-07T18:19:29.476Z,2.00
2023-08-07T18:22:31.897Z,2.38
2023-08-07T18:25:34.190Z,2.35
2023-08-07T18:28:39.523Z,2.40
2023-08-07T18:31:41.854Z,3.00
2023-08-07T18:34:44.298Z,1.63
2023-08-07T18:37:47.327Z,1.25
2023-08-07T18:40:49.845Z,1.45
2023-08-07T18:43:53.418Z,2.72
2023-08-07T18:46:56.032Z,3.40
2023-08-07T18:49:58.550Z,3.58
2023-08-07T18:53:00.861Z,2.78
2023-08-07T18:56:03.187Z,6.28
2023-08-07T18:59:07.223Z,5.57
2023-08-07T19:02:09.476Z,2.28
2023-08-07T19:05:11.903Z,2.72
2023-08-07T19:08:14.228Z,1.42
2023-08-07T19:11:16.957Z,3.10
2023-08-07T19:14:20.538Z,1.10
2023-08-07T19:17:22.833Z,2.25
2023-08-07T19:20:25.158Z,2.70
2023-08-07T19:23:28.191Z,2.83
2023-08-07T19:26:30.452Z,3.50
2023-08-07T19:29:34.199Z,3.28
2023-08-07T19:32:36.556Z,2.53
2023-08-07T19:35:41.385Z,4.97
2023-08-07T19:38:44.681Z,6.35
2023-08-07T19:41:47.099Z,4.28
2023-08-07T19:44:50.779Z,4.57
2023-08-07T19:47:53.229Z,5.88
2023-08-07T19:50:55.889Z,2.05
2023-08-07T19:54:01.769Z,4.43
2023-08-07T19:57:05.294Z,2.47
2023-08-07T20:00:11.743Z,4.53
2023-08-07T20:03:14.879Z,2.95
2023-08-07T20:06:17.124Z,2.25
2023-08-07T20:09:19.454Z,2.05
2023-08-07T20:12:22.020Z,2.83
2023-08-07T20:15:25.846Z,1.90
2023-08-07T20:18:28.136Z,3.30
2023-08-07T20:21:30.425Z,2.35
2023-08-07T20:24:32.748Z,1.63
2023-08-07T20:27:35.065Z,2.20
2023-08-07T20:30:41.128Z,4.40
2023-08-07T20:33:45.954Z,3.70
2023-08-07T20:36:48.217Z,2.45
2023-08-07T20:39:50.558Z,2.65
2023-08-07T20:42:52.872Z,2.53
2023-08-07T20:45:56.551Z,4.15
2023-08-07T20:48:58.874Z,3.28
2023-08-07T20:52:01.431Z,4.22
2023-08-07T20:55:04.317Z,3.08
2023-08-07T20:58:06.620Z,2.00
2023-08-07T21:01:10.271Z,5.85
2023-08-07T21:04:13.282Z,2.28
2023-08-07T21:07:15.664Z,2.55
2023-08-07T21:10:18.109Z,2.30
2023-08-07T21:13:20.432Z,2.38
2023-08-07T21:16:24.023Z,6.18
2023-08-07T21:19:26.780Z,4.07
2023-08-07T21:22:29.078Z,3.78
2023-08-07T21:25:33.108Z,0.88
2023-08-07T21:28:35.493Z,1.88
2023-08-07T21:31:39.339Z,3.42
2023-08-07T21:34:44.380Z,3.22
2023-08-07T21:37:46.704Z,5.80
2023-08-07T21:40:48.996Z,5.35
2023-08-07T21:43:51.280Z,7.13
2023-08-07T21:46:54.904Z,6.60
2023-08-07T21:49:57.257Z,2.92
2023-08-07T21:53:00.485Z,3.17
2023-08-07T21:56:02.773Z,5.18
2023-08-07T21:59:05.046Z,1.98
2023-08-07T22:02:08.846Z,3.63
2023-08-07T22:05:11.355Z,2.17
2023-08-07T22:08:13.623Z,4.40
2023-08-07T22:11:16.069Z,4.45
2023-08-07T22:14:18.465Z,2.38
2023-08-07T22:17:22.102Z,5.20
2023-08-07T22:20:25.060Z,4.13
2023-08-07T22:23:27.817Z,1.40
2023-08-07T22:26:30.326Z,3.63
2023-08-07T22:29:32.605Z,2.00
2023-08-07T22:32:36.449Z,8.38
2023-08-07T22:35:38.879Z,2.00
2023-08-07T22:38:41.569Z,4.20
2023-08-07T22:41:43.776Z,4.60
2023-08-07T22:44:46.030Z,3.90
2023-08-07T22:47:49.739Z,3.85
2023-08-07T22:50:52.194Z,4.30
2023-08-07T22:53:54.481Z,3.25
2023-08-07T22:56:56.783Z,2.15
2023-08-07T22:59:59.031Z,4.70
2023-08-07T23:03:03.096Z,3.63
2023-08-07T23:06:05.524Z,3.33
2023-08-07T23:09:08.446Z,1.73
2023-08-07T23:12:11.092Z,3.92
2023-08-07T23:15:13.671Z,2.78
2023-08-07T23:18:19.178Z,4.18
2023-08-07T23:21:21.533Z,3.97
2023-08-07T23:24:23.848Z,2.55
2023-08-07T23:27:26.194Z,4.93
2023-08-07T23:30:29.559Z,4.35
2023-08-07T23:33:33.263Z,2.45
2023-08-07T23:36:35.672Z,2.03
2023-08-07T23:39:37.955Z,2.42
2023-08-07T23:42:40.209Z,1.75
2023-08-07T23:45:42.490Z,2.55
2023-08-07T23:48:46.216Z,2.55
2023-08-07T23:51:48.540Z,3.83
2023-08-07T23:54:50.771Z,5.85
2023-08-07T23:57:53.069Z,5.45
